createdAt,value
2018-11-02T13:51:42.188Z,6.40
2018-11-02T13:54:10.684Z,7.00
2018-11-02T13:56:39.166Z,6.67
2018-11-02T13:59:07.644Z,6.83
2018-11-02T14:01:36.127Z,6.70
2018-11-02T14:04:04.593Z,6.37
2018-11-02T14:06:33.084Z,5.93
2018-11-02T14:09:01.710Z,6.73
2018-11-02T14:11:30.286Z,6.57
2018-11-02T14:13:58.719Z,7.30
2018-11-02T14:16:27.225Z,6.47
2018-11-02T14:18:55.715Z,6.70
2018-11-02T14:21:24.297Z,6.00
2018-11-02T14:23:52.779Z,6.10
2018-11-02T14:26:21.270Z,6.63
2018-11-02T14:28:49.755Z,5.53
2018-11-02T14:31:18.237Z,5.73
2018-11-02T14:33:46.844Z,6.43
2018-11-02T14:36:15.368Z,6.10
2018-11-02T14:38:43.867Z,6.23
2018-11-02T14:41:12.407Z,5.87
2018-11-02T14:43:40.932Z,6.30
2018-11-02T14:46:09.600Z,5.53
2018-11-02T14:48:39.273Z,5.80
2018-11-02T14:51:08.676Z,5.57
2018-11-02T14:53:37.146Z,4.97
2018-11-02T14:56:05.777Z,5.60
2018-11-02T14:58:34.261Z,5.50
2018-11-02T15:01:02.751Z,5.07
2018-11-02T15:03:31.236Z,5.73
2018-11-02T15:05:59.702Z,5.67
2018-11-02T15:08:28.176Z,5.30
2018-11-02T15:10:56.720Z,5.30
2018-11-02T15:13:25.228Z,5.60
2018-11-02T15:15:53.727Z,5.87
2018-11-02T15:18:22.219Z,5.03
2018-11-02T15:20:50.700Z,5.17
2018-11-02T15:23:19.213Z,4.90
2018-11-02T15:26:49.514Z,6.40
2018-11-02T15:29:18.123Z,6.80
2018-11-02T15:31:46.614Z,6.40
2018-11-02T15:34:15.118Z,6.40
2018-11-02T15:36:43.617Z,6.40
2018-11-02T15:39:13.073Z,5.60
2018-11-02T15:41:41.795Z,5.50
2018-11-02T15:44:10.515Z,5.80
2018-11-02T15:46:38.952Z,5.50
2018-11-02T15:49:07.611Z,5.60
2018-11-02T15:51:36.082Z,5.37
2018-11-02T15:54:04.610Z,5.27
2018-11-02T15:56:33.087Z,5.77
2018-11-02T15:59:01.563Z,6.00
2018-11-02T16:01:30.045Z,5.50
2018-11-02T16:03:58.528Z,5.10
2018-11-02T16:06:27.014Z,4.73
2018-11-02T16:08:55.532Z,4.73
2018-11-02T16:11:24.028Z,4.87
2018-11-02T16:13:52.531Z,4.77
2018-11-02T16:16:21.116Z,4.70
2018-11-02T16:18:49.610Z,4.90
2018-11-02T16:21:18.091Z,4.63
2018-11-02T16:23:46.570Z,4.60
2018-11-02T16:26:15.037Z,4.50
2018-11-02T16:28:43.586Z,4.60
2018-11-02T16:31:12.077Z,4.77
2018-11-02T16:33:40.557Z,4.30
2018-11-02T16:36:09.133Z,4.77
2018-11-02T16:38:37.629Z,4.30
2018-11-02T16:41:06.117Z,4.33
2018-11-02T16:43:34.627Z,4.50
2018-11-02T16:46:03.328Z,4.30
2018-11-02T16:48:31.848Z,4.73
2018-11-02T16:51:00.336Z,4.07
2018-11-02T16:53:28.839Z,4.30
2018-11-02T16:55:57.319Z,4.80
2018-11-02T16:58:25.799Z,4.83
2018-11-02T17:00:54.265Z,4.60
2018-11-02T17:03:22.741Z,4.70
2018-11-02T17:05:51.219Z,4.10
2018-11-02T17:08:19.765Z,4.00
2018-11-02T17:10:48.249Z,4.23
2018-11-02T17:13:16.725Z,4.33
2018-11-02T17:15:45.225Z,4.77
2018-11-02T17:18:13.754Z,4.53
2018-11-02T17:20:42.201Z,4.50
2018-11-02T17:23:10.678Z,4.40
2018-11-02T17:25:39.163Z,4.87
2018-11-02T17:28:07.646Z,4.93
2018-11-02T17:30:36.139Z,4.60
2018-11-02T17:33:04.882Z,5.30
2018-11-02T17:35:33.372Z,5.30
2018-11-02T17:38:01.872Z,5.53
2018-11-02T17:40:30.351Z,5.37
2018-11-02T17:42:58.890Z,5.00
2018-11-02T17:45:27.362Z,5.37
2018-11-02T17:47:55.870Z,5.63
2018-11-02T17:50:24.342Z,5.30
2018-11-02T17:52:52.832Z,5.70
2018-11-02T17:55:21.344Z,5.67
2018-11-02T17:57:49.819Z,5.40
2018-11-02T18:00:18.305Z,6.73
2018-11-02T18:02:46.794Z,6.03
2018-11-02T18:05:15.278Z,5.73
2018-11-02T18:07:43.760Z,6.03
2018-11-02T18:10:13.282Z,5.47
2018-11-02T18:12:41.774Z,6.37
2018-11-02T18:15:10.978Z,5.83
2018-11-02T18:17:39.448Z,6.33
2018-11-02T18:20:10.001Z,5.87
2018-11-02T18:22:38.510Z,6.50
2018-11-02T18:25:07.263Z,6.00
2018-11-02T18:27:35.832Z,6.17
2018-11-02T18:30:04.853Z,6.73
2018-11-02T18:32:33.350Z,6.37
2018-11-02T18:35:02.011Z,6.33
2018-11-02T18:37:30.338Z,6.13
2018-11-02T18:39:58.807Z,6.77
2018-11-02T18:42:27.426Z,6.30
2018-11-02T18:44:55.766Z,6.10
2018-11-02T18:47:28.444Z,6.90
2018-11-02T18:49:56.915Z,6.13
2018-11-02T18:52:25.406Z,5.97
2018-11-02T18:54:53.915Z,6.73
2018-11-02T18:57:22.403Z,5.93
2018-11-02T18:59:50.898Z,6.00
2018-11-02T19:02:19.397Z,6.07
2018-11-02T19:04:47.883Z,6.10
2018-11-02T19:07:16.364Z,6.20
2018-11-02T19:09:44.862Z,5.80
2018-11-02T19:12:13.339Z,5.83
2018-11-02T19:14:41.815Z,6.00
2018-11-02T19:17:10.303Z,5.40
2018-11-02T19:19:38.821Z,5.27
2018-11-02T19:22:07.310Z,5.60
2018-11-02T19:24:35.791Z,5.30
2018-11-02T19:27:04.304Z,5.20
2018-11-02T19:29:32.779Z,5.00
2018-11-02T19:32:01.456Z,4.70
2018-11-02T19:34:30.114Z,5.07
2018-11-02T19:36:58.447Z,5.03
2018-11-02T19:39:26.930Z,4.50
2018-11-02T19:41:55.418Z,5.10
2018-11-02T19:44:23.904Z,5.10
2018-11-02T19:46:52.394Z,5.17
2018-11-02T19:49:20.883Z,4.60
2018-11-02T19:51:49.359Z,4.63
2018-11-02T19:54:17.837Z,5.20
2018-11-02T19:56:46.347Z,4.80
2018-11-02T19:59:14.814Z,4.83
2018-11-02T20:01:43.313Z,4.23
2018-11-02T20:04:11.779Z,4.23
2018-11-02T20:06:40.300Z,4.53
2018-11-02T20:09:11.249Z,4.53
2018-11-02T20:11:39.767Z,4.50
2018-11-02T20:14:08.271Z,4.67
2018-11-02T20:16:36.744Z,4.67
2018-11-02T20:19:05.534Z,4.33
2018-11-02T20:21:33.984Z,4.40
2018-11-02T20:24:02.547Z,4.37
2018-11-02T20:26:31.027Z,4.33
2018-11-02T20:28:59.520Z,4.63
2018-11-02T20:31:28.002Z,4.40
2018-11-02T20:33:56.475Z,4.30
2018-11-02T20:36:24.951Z,4.23
2018-11-02T20:38:53.495Z,4.50
2018-11-02T20:41:21.979Z,4.33
2018-11-02T20:43:50.466Z,3.93
2018-11-02T20:46:18.973Z,3.93
2018-11-02T20:48:47.512Z,4.37
2018-11-02T20:51:15.915Z,4.00
2018-11-02T20:53:44.431Z,4.47
2018-11-02T20:56:12.915Z,4.30
2018-11-02T20:58:41.386Z,3.97
2018-11-02T21:01:09.867Z,4.07
2018-11-02T21:03:38.354Z,4.00
2018-11-02T21:06:06.902Z,4.20
2018-11-02T21:08:35.388Z,4.30
2018-11-02T21:11:03.815Z,4.17
2018-11-02T21:13:32.314Z,4.33
2018-11-02T21:16:00.809Z,4.10
2018-11-02T21:18:29.304Z,3.77
2018-11-02T21:20:57.850Z,4.00
2018-11-02T21:23:26.318Z,4.30
2018-11-02T21:25:54.803Z,4.20
2018-11-02T21:28:23.279Z,3.97
2018-11-02T21:30:51.771Z,4.30
2018-11-02T21:33:20.272Z,4.40
2018-11-02T21:35:48.788Z,4.30
2018-11-02T21:38:17.344Z,4.50
2018-11-02T21:40:45.794Z,4.00
2018-11-02T21:43:14.268Z,4.30
2018-11-02T21:45:42.757Z,4.10
2018-11-02T21:48:11.253Z,4.10
2018-11-02T21:50:39.763Z,4.57
2018-11-02T21:53:08.256Z,4.40
2018-11-02T21:55:36.723Z,4.77
2018-11-02T21:58:05.339Z,4.67
2018-11-02T22:00:33.822Z,4.20
2018-11-02T22:03:02.280Z,4.70
2018-11-02T22:05:30.774Z,4.20
2018-11-02T22:07:59.272Z,4.43
2018-11-02T22:10:27.752Z,4.40
2018-11-02T22:12:56.256Z,4.57
2018-11-02T22:15:24.729Z,4.23
2018-11-02T22:17:53.285Z,4.47
2018-11-02T22:20:21.790Z,4.10
2018-11-02T22:22:50.272Z,4.37
2018-11-02T22:25:18.742Z,4.37
2018-11-02T22:27:47.250Z,4.50
2018-11-02T22:30:16.807Z,4.47
2018-11-02T22:32:45.305Z,4.90
2018-11-02T22:35:14.495Z,4.23
2018-11-02T22:37:43.022Z,4.43
2018-11-02T22:40:12.276Z,4.33
2018-11-02T22:42:41.499Z,4.50
2018-11-02T22:45:10.903Z,4.23
2018-11-02T22:47:39.465Z,4.43
2018-11-02T22:50:08.547Z,4.13
2018-11-02T22:52:37.040Z,4.33
2018-11-02T22:55:06.456Z,4.30
2018-11-02T22:57:34.931Z,4.40
2018-11-02T23:00:03.524Z,3.87
2018-11-02T23:02:32.035Z,4.67
2018-11-02T23:05:00.511Z,4.57
2018-11-02T23:07:29.016Z,4.17
2018-11-02T23:09:57.496Z,4.40
2018-11-02T23:12:25.978Z,4.30
2018-11-02T23:14:54.467Z,4.10
2018-11-02T23:17:22.977Z,4.50
2018-11-02T23:19:51.466Z,4.50
2018-11-02T23:22:19.952Z,4.20
2018-11-02T23:24:48.429Z,4.27
2018-11-02T23:27:16.965Z,4.50
2018-11-02T23:29:45.464Z,4.67
2018-11-02T23:32:13.941Z,4.37
2018-11-02T23:34:42.409Z,4.50
2018-11-02T23:37:10.904Z,4.43
2018-11-02T23:39:39.753Z,4.40
2018-11-02T23:42:08.311Z,4.50
2018-11-02T23:44:36.784Z,3.93
2018-11-02T23:47:05.398Z,4.20
2018-11-02T23:49:33.882Z,4.50
2018-11-02T23:52:02.369Z,4.27
2018-11-02T23:54:30.820Z,5.13
2018-11-02T23:56:59.314Z,4.27
2018-11-02T23:59:27.812Z,4.63
